createdAt,value
2017-11-16T00:00:58.517Z,1013.58
2017-11-16T00:02:00.085Z,1013.65
2017-11-16T00:03:01.516Z,1013.64
2017-11-16T00:04:02.971Z,1013.62
2017-11-16T00:05:04.511Z,1013.65
2017-11-16T00:06:06.338Z,1013.64
2017-11-16T00:07:07.754Z,1013.66
2017-11-16T00:08:09.343Z,1013.61
2017-11-16T00:09:10.759Z,1013.57
2017-11-16T00:10:12.181Z,1013.62
2017-11-16T00:11:13.588Z,1013.59
2017-11-16T00:12:15.100Z,1013.58
2017-11-16T00:13:16.525Z,1013.55
2017-11-16T00:14:17.948Z,1013.57
2017-11-16T00:15:19.402Z,1013.52
2017-11-16T00:16:20.786Z,1013.55
2017-11-16T00:17:22.215Z,1013.53
2017-11-16T00:18:24.360Z,1013.47
2017-11-16T00:19:25.778Z,1013.46
2017-11-16T00:20:27.280Z,1013.51
2017-11-16T00:21:28.666Z,1013.50
2017-11-16T00:22:30.073Z,1013.48
2017-11-16T00:23:31.630Z,1013.45
2017-11-16T00:24:33.033Z,1013.46
2017-11-16T00:25:34.448Z,1013.48
2017-11-16T00:26:36.013Z,1013.46
2017-11-16T00:27:37.425Z,1013.41
2017-11-16T00:28:38.863Z,1013.44
2017-11-16T00:29:42.073Z,1013.45
2017-11-16T00:30:43.485Z,1013.44
2017-11-16T00:31:44.900Z,1013.40
2017-11-16T00:32:46.372Z,1013.45
2017-11-16T00:33:47.806Z,1013.42
2017-11-16T00:34:49.219Z,1013.44
2017-11-16T00:35:50.628Z,1013.40
2017-11-16T00:36:52.053Z,1013.40
2017-11-16T00:37:53.456Z,1013.40
2017-11-16T00:38:54.873Z,1013.38
2017-11-16T00:39:56.289Z,1013.37
2017-11-16T00:40:57.819Z,1013.41
2017-11-16T00:41:59.226Z,1013.37
2017-11-16T00:43:00.724Z,1013.37
2017-11-16T00:44:02.149Z,1013.37
2017-11-16T00:45:03.553Z,1013.36
2017-11-16T00:46:04.998Z,1013.38
2017-11-16T00:47:06.418Z,1013.38
2017-11-16T00:48:07.914Z,1013.33
2017-11-16T00:49:09.441Z,1013.30
2017-11-16T00:50:10.861Z,1013.26
2017-11-16T00:51:12.280Z,1013.23
2017-11-16T00:52:13.689Z,1013.26
2017-11-16T00:53:15.098Z,1013.24
2017-11-16T00:54:16.617Z,1013.24
2017-11-16T00:55:18.027Z,1013.22
2017-11-16T00:56:19.445Z,1013.26
2017-11-16T00:57:20.854Z,1013.25
2017-11-16T00:58:22.433Z,1013.25
2017-11-16T00:59:23.844Z,1013.24
2017-11-16T01:00:25.299Z,1013.23
2017-11-16T01:01:26.844Z,1013.23
2017-11-16T01:02:28.253Z,1013.22
2017-11-16T01:03:29.676Z,1013.21
2017-11-16T01:04:31.095Z,1013.18
2017-11-16T01:05:32.500Z,1013.15
2017-11-16T01:06:33.912Z,1013.16
2017-11-16T01:07:35.338Z,1013.12
2017-11-16T01:08:36.747Z,1013.09
2017-11-16T01:09:38.169Z,1013.08
2017-11-16T01:10:39.586Z,1013.02
2017-11-16T01:11:41.096Z,1013.01
2017-11-16T01:12:42.512Z,1013.02
2017-11-16T01:13:43.922Z,1013.07
2017-11-16T01:14:45.343Z,1013.07
2017-11-16T01:15:47.288Z,1013.06
2017-11-16T01:16:48.658Z,1013.07
2017-11-16T01:17:50.074Z,1013.07
2017-11-16T01:18:51.483Z,1013.03
2017-11-16T01:19:52.900Z,1013.02
2017-11-16T01:20:54.313Z,1013.06
2017-11-16T01:21:55.723Z,1013.02
2017-11-16T01:22:57.135Z,1013.05
2017-11-16T01:23:58.549Z,1013.04
2017-11-16T01:24:59.967Z,1013.07
2017-11-16T01:26:01.382Z,1013.03
2017-11-16T01:27:03.363Z,1013.07
2017-11-16T01:28:04.789Z,1013.07
2017-11-16T01:29:06.191Z,1013.07
2017-11-16T01:30:07.606Z,1013.05
2017-11-16T01:31:09.020Z,1013.08
2017-11-16T01:32:10.450Z,1013.09
2017-11-16T01:33:11.868Z,1013.08
2017-11-16T01:34:13.286Z,1013.10
2017-11-16T01:35:14.710Z,1013.09
2017-11-16T01:36:16.132Z,1013.14
2017-11-16T01:37:17.547Z,1013.13
2017-11-16T01:38:18.963Z,1013.10
2017-11-16T01:39:21.232Z,1013.12
2017-11-16T01:40:22.640Z,1013.09
2017-11-16T01:41:24.059Z,1013.10
2017-11-16T01:42:25.485Z,1013.05
2017-11-16T01:43:26.889Z,1013.06
2017-11-16T01:44:28.305Z,1013.04
2017-11-16T01:45:29.709Z,1013.01
2017-11-16T01:46:31.130Z,1013.05
2017-11-16T01:47:32.546Z,1012.98
2017-11-16T01:48:33.957Z,1013.00
2017-11-16T01:49:35.374Z,1012.97
2017-11-16T01:50:36.784Z,1013.00
2017-11-16T01:51:38.195Z,1013.00
2017-11-16T01:52:39.607Z,1013.00
2017-11-16T01:53:41.011Z,1012.99
2017-11-16T01:54:42.430Z,1012.99
2017-11-16T01:55:43.854Z,1013.00
2017-11-16T01:56:45.293Z,1012.96
2017-11-16T01:57:46.722Z,1012.98
2017-11-16T01:58:48.136Z,1012.98
2017-11-16T01:59:49.548Z,1012.95
2017-11-16T02:00:50.966Z,1013.00
2017-11-16T02:01:52.390Z,1012.96
2017-11-16T02:02:53.799Z,1012.95
2017-11-16T02:03:55.207Z,1012.95
2017-11-16T02:04:56.620Z,1012.92
2017-11-16T02:05:58.040Z,1012.95
2017-11-16T02:06:59.447Z,1012.94
2017-11-16T02:08:00.864Z,1012.89
2017-11-16T02:09:02.267Z,1012.90
2017-11-16T02:10:03.687Z,1012.91
2017-11-16T02:11:05.110Z,1012.91
2017-11-16T02:12:06.526Z,1012.90
2017-11-16T02:13:07.930Z,1012.91
2017-11-16T02:14:09.339Z,1012.90
2017-11-16T02:15:11.355Z,1012.91
2017-11-16T02:16:12.887Z,1012.92
2017-11-16T02:17:14.303Z,1012.95
2017-11-16T02:18:16.087Z,1012.92
2017-11-16T02:19:17.507Z,1012.98
2017-11-16T02:20:19.060Z,1012.93
2017-11-16T02:21:20.463Z,1012.90
2017-11-16T02:22:21.876Z,1012.91
2017-11-16T02:23:23.297Z,1012.92
2017-11-16T02:24:24.696Z,1012.91
2017-11-16T02:25:26.112Z,1012.89
2017-11-16T02:26:27.512Z,1012.91
2017-11-16T02:27:28.939Z,1012.87
2017-11-16T02:28:30.349Z,1012.84
2017-11-16T02:29:31.767Z,1012.83
2017-11-16T02:30:33.177Z,1012.85
2017-11-16T02:31:34.587Z,1012.92
2017-11-16T02:32:36.034Z,1012.89
2017-11-16T02:33:37.450Z,1012.91
2017-11-16T02:34:38.868Z,1012.89
2017-11-16T02:35:40.283Z,1012.89
2017-11-16T02:36:41.696Z,1012.89
2017-11-16T02:37:43.121Z,1012.92
2017-11-16T02:38:44.554Z,1012.90
2017-11-16T02:39:46.621Z,1012.89
2017-11-16T02:40:48.048Z,1012.83
2017-11-16T02:41:49.480Z,1012.84
2017-11-16T02:42:50.896Z,1012.82
2017-11-16T02:43:52.300Z,1012.82
2017-11-16T02:44:53.851Z,1012.80
2017-11-16T02:45:55.270Z,1012.83
2017-11-16T02:46:56.678Z,1012.85
2017-11-16T02:47:58.089Z,1012.78
2017-11-16T02:48:59.512Z,1012.79
2017-11-16T02:50:00.922Z,1012.80
2017-11-16T02:51:02.334Z,1012.80
2017-11-16T02:52:03.747Z,1012.79
2017-11-16T02:53:05.167Z,1012.79
2017-11-16T02:54:06.571Z,1012.84
2017-11-16T02:55:07.978Z,1012.82
2017-11-16T02:56:09.397Z,1012.87
2017-11-16T02:57:11.767Z,1012.85
2017-11-16T02:58:13.207Z,1012.85
2017-11-16T02:59:14.621Z,1012.87
2017-11-16T03:00:16.120Z,1012.88
2017-11-16T03:01:17.522Z,1012.89
2017-11-16T03:02:18.940Z,1012.89
2017-11-16T03:03:20.344Z,1012.88
2017-11-16T03:04:21.763Z,1012.84
2017-11-16T03:05:23.175Z,1012.90
2017-11-16T03:06:24.722Z,1012.92
2017-11-16T03:07:26.131Z,1012.91
2017-11-16T03:08:27.550Z,1012.88
2017-11-16T03:09:28.957Z,1012.93
2017-11-16T03:10:30.382Z,1012.90
2017-11-16T03:11:31.784Z,1012.89
2017-11-16T03:12:33.210Z,1012.94
2017-11-16T03:13:34.623Z,1012.91
2017-11-16T03:14:36.043Z,1012.99
2017-11-16T03:15:37.451Z,1012.96
2017-11-16T03:16:38.864Z,1012.95
2017-11-16T03:17:40.278Z,1012.95
2017-11-16T03:18:42.302Z,1012.91
2017-11-16T03:19:43.769Z,1012.96
2017-11-16T03:20:45.188Z,1012.97
2017-11-16T03:21:46.610Z,1012.93
2017-11-16T03:22:48.020Z,1012.92
2017-11-16T03:23:49.430Z,1012.87
2017-11-16T03:24:50.951Z,1012.91
2017-11-16T03:25:52.358Z,1012.90
2017-11-16T03:26:53.772Z,1012.86
2017-11-16T03:27:55.183Z,1012.95
2017-11-16T03:28:56.591Z,1012.90
2017-11-16T03:29:58.004Z,1012.89
2017-11-16T03:30:59.434Z,1012.95
2017-11-16T03:32:00.832Z,1012.91
2017-11-16T03:33:02.285Z,1012.93
2017-11-16T03:34:03.648Z,1012.95
2017-11-16T03:35:05.077Z,1012.92
2017-11-16T03:36:06.488Z,1012.89
2017-11-16T03:37:07.904Z,1012.87
2017-11-16T03:38:09.403Z,1012.87
2017-11-16T03:39:10.811Z,1012.84
2017-11-16T03:40:12.223Z,1012.84
2017-11-16T03:41:13.599Z,1012.84
2017-11-16T03:42:15.012Z,1012.86
2017-11-16T03:43:16.427Z,1012.89
2017-11-16T03:44:17.842Z,1012.89
2017-11-16T03:45:19.260Z,1012.87
2017-11-16T03:46:20.666Z,1012.85
2017-11-16T03:47:22.076Z,1012.84
2017-11-16T03:48:23.492Z,1012.84
2017-11-16T03:49:24.906Z,1012.83
2017-11-16T03:50:26.355Z,1012.82
2017-11-16T03:51:27.767Z,1012.83
2017-11-16T03:52:29.183Z,1012.86
2017-11-16T03:53:30.593Z,1012.87
2017-11-16T03:54:32.009Z,1012.84
2017-11-16T03:55:33.433Z,1012.84
2017-11-16T03:56:34.845Z,1012.88
2017-11-16T03:57:36.261Z,1012.85
2017-11-16T03:58:37.677Z,1012.86
2017-11-16T03:59:39.083Z,1012.87
2017-11-16T04:00:40.505Z,1012.88
2017-11-16T04:01:41.918Z,1012.85
2017-11-16T04:02:43.325Z,1012.88
2017-11-16T04:03:44.741Z,1012.87
2017-11-16T04:04:46.160Z,1012.86
2017-11-16T04:05:47.573Z,1012.93
2017-11-16T04:06:48.985Z,1012.89
2017-11-16T04:07:50.414Z,1012.92
2017-11-16T04:08:51.822Z,1012.93
2017-11-16T04:09:53.244Z,1012.90
2017-11-16T04:10:54.660Z,1012.96
2017-11-16T04:11:56.074Z,1012.91
2017-11-16T04:12:57.489Z,1012.93
2017-11-16T04:13:58.898Z,1012.96
2017-11-16T04:15:00.318Z,1012.94
2017-11-16T04:16:01.734Z,1012.93
2017-11-16T04:17:03.152Z,1012.89
2017-11-16T04:18:04.576Z,1012.86
2017-11-16T04:19:05.967Z,1012.84
2017-11-16T04:20:07.378Z,1012.85
2017-11-16T04:21:08.791Z,1012.88
2017-11-16T04:22:10.221Z,1012.85
2017-11-16T04:23:11.615Z,1012.87
2017-11-16T04:24:13.026Z,1012.86
2017-11-16T04:25:14.434Z,1012.85
2017-11-16T04:26:15.850Z,1012.83
2017-11-16T04:27:17.263Z,1012.78
2017-11-16T04:28:18.669Z,1012.78
2017-11-16T04:29:20.079Z,1012.74
2017-11-16T04:30:21.501Z,1012.77
2017-11-16T04:31:22.920Z,1012.75
2017-11-16T04:32:24.327Z,1012.76
2017-11-16T04:33:25.730Z,1012.73
2017-11-16T04:34:27.149Z,1012.73
2017-11-16T04:35:28.566Z,1012.65
2017-11-16T04:36:29.973Z,1012.70
2017-11-16T04:37:31.390Z,1012.65
2017-11-16T04:38:32.795Z,1012.64
2017-11-16T04:39:34.205Z,1012.63
2017-11-16T04:40:35.619Z,1012.68
2017-11-16T04:41:37.037Z,1012.62
2017-11-16T04:42:38.452Z,1012.58
2017-11-16T04:43:39.861Z,1012.66
2017-11-16T04:44:41.267Z,1012.66
2017-11-16T04:45:42.679Z,1012.67
2017-11-16T04:46:44.097Z,1012.66
2017-11-16T04:47:45.520Z,1012.68
2017-11-16T04:48:47.457Z,1012.66
2017-11-16T04:49:48.870Z,1012.66
2017-11-16T04:50:50.274Z,1012.65
2017-11-16T04:51:51.678Z,1012.65
2017-11-16T04:52:53.124Z,1012.68
2017-11-16T04:53:54.531Z,1012.67
2017-11-16T04:54:55.937Z,1012.62
2017-11-16T04:55:57.350Z,1012.61
2017-11-16T04:56:58.784Z,1012.61
2017-11-16T04:58:00.188Z,1012.55
2017-11-16T04:59:01.620Z,1012.57
2017-11-16T05:00:03.039Z,1012.60
2017-11-16T05:01:04.444Z,1012.59
2017-11-16T05:02:05.817Z,1012.61
2017-11-16T05:03:07.236Z,1012.58
2017-11-16T05:04:08.642Z,1012.61
2017-11-16T05:05:10.054Z,1012.60
2017-11-16T05:06:11.561Z,1012.63
2017-11-16T05:07:12.975Z,1012.59
2017-11-16T05:08:14.395Z,1012.57
2017-11-16T05:09:15.806Z,1012.56
2017-11-16T05:10:17.221Z,1012.54
2017-11-16T05:11:18.636Z,1012.52
2017-11-16T05:12:20.044Z,1012.59
2017-11-16T05:13:21.483Z,1012.60
2017-11-16T05:14:22.869Z,1012.55
2017-11-16T05:15:24.287Z,1012.59
2017-11-16T05:16:25.698Z,1012.58
2017-11-16T05:17:27.110Z,1012.56
2017-11-16T05:18:28.532Z,1012.55
2017-11-16T05:19:29.937Z,1012.56
2017-11-16T05:20:31.354Z,1012.54
2017-11-16T05:21:32.771Z,1012.53
2017-11-16T05:22:34.192Z,1012.54
2017-11-16T05:23:35.672Z,1012.54
2017-11-16T05:24:37.092Z,1012.57
2017-11-16T05:25:38.509Z,1012.53
2017-11-16T05:26:39.902Z,1012.58
2017-11-16T05:27:41.315Z,1012.59
2017-11-16T05:28:42.722Z,1012.61
2017-11-16T05:29:44.137Z,1012.57
2017-11-16T05:30:45.549Z,1012.62
2017-11-16T05:31:46.971Z,1012.65
2017-11-16T05:32:48.391Z,1012.61
2017-11-16T05:33:49.803Z,1012.64
2017-11-16T05:34:51.211Z,1012.65
2017-11-16T05:35:52.629Z,1012.66
2017-11-16T05:36:54.046Z,1012.69
2017-11-16T05:37:55.458Z,1012.68
2017-11-16T05:38:56.883Z,1012.65
2017-11-16T05:39:58.288Z,1012.66
2017-11-16T05:40:59.707Z,1012.59
2017-11-16T05:42:01.117Z,1012.58
2017-11-16T05:43:02.527Z,1012.57
2017-11-16T05:44:03.937Z,1012.57
2017-11-16T05:45:05.348Z,1012.59
2017-11-16T05:46:06.772Z,1012.63
2017-11-16T05:47:08.199Z,1012.68
2017-11-16T05:48:09.625Z,1012.64
2017-11-16T05:49:11.037Z,1012.65
2017-11-16T05:50:12.448Z,1012.68
2017-11-16T05:51:13.862Z,1012.63
2017-11-16T05:52:15.273Z,1012.68
2017-11-16T05:53:16.691Z,1012.69
2017-11-16T05:54:18.112Z,1012.69
2017-11-16T05:55:19.520Z,1012.66
2017-11-16T05:56:20.936Z,1012.73
2017-11-16T05:57:22.353Z,1012.75
2017-11-16T05:58:23.768Z,1012.70
2017-11-16T05:59:25.185Z,1012.69
2017-11-16T06:00:26.603Z,1012.70
2017-11-16T06:01:28.102Z,1012.70
2017-11-16T06:02:29.510Z,1012.73
2017-11-16T06:03:30.929Z,1012.64
2017-11-16T06:04:33.020Z,1012.67
2017-11-16T06:05:34.425Z,1012.66
2017-11-16T06:06:35.839Z,1012.69
2017-11-16T06:07:37.365Z,1012.70
2017-11-16T06:08:38.776Z,1012.66
2017-11-16T06:09:40.194Z,1012.63
2017-11-16T06:10:41.595Z,1012.64
2017-11-16T06:11:43.013Z,1012.67
2017-11-16T06:12:44.429Z,1012.66
2017-11-16T06:13:45.902Z,1012.59
2017-11-16T06:14:47.312Z,1012.62
2017-11-16T06:15:48.734Z,1012.61
2017-11-16T06:16:50.143Z,1012.61
2017-11-16T06:17:51.557Z,1012.62
2017-11-16T06:18:52.988Z,1012.58
2017-11-16T06:19:54.391Z,1012.61
2017-11-16T06:20:56.760Z,1012.62
2017-11-16T06:21:58.180Z,1012.59
2017-11-16T06:22:59.592Z,1012.56
2017-11-16T06:24:00.999Z,1012.53
2017-11-16T06:25:02.419Z,1012.53
2017-11-16T06:26:03.825Z,1012.50
2017-11-16T06:27:05.245Z,1012.50
2017-11-16T06:28:06.658Z,1012.49
2017-11-16T06:29:08.066Z,1012.54
2017-11-16T06:30:09.475Z,1012.52
2017-11-16T06:31:10.892Z,1012.50
2017-11-16T06:32:12.305Z,1012.51
2017-11-16T06:33:13.722Z,1012.48
2017-11-16T06:34:15.142Z,1012.54
2017-11-16T06:35:16.548Z,1012.53
2017-11-16T06:36:17.962Z,1012.52
2017-11-16T06:37:19.382Z,1012.53
2017-11-16T06:38:20.805Z,1012.51
2017-11-16T06:39:22.270Z,1012.53
2017-11-16T06:40:23.683Z,1012.55
2017-11-16T06:41:25.103Z,1012.57
2017-11-16T06:42:26.512Z,1012.54
2017-11-16T06:43:27.925Z,1012.55
2017-11-16T06:44:29.346Z,1012.57
2017-11-16T06:45:30.863Z,1012.55
2017-11-16T06:46:32.277Z,1012.57
2017-11-16T06:47:33.693Z,1012.53
2017-11-16T06:48:35.107Z,1012.54
2017-11-16T06:49:36.518Z,1012.54
2017-11-16T06:50:37.933Z,1012.60
2017-11-16T06:51:39.346Z,1012.54
2017-11-16T06:52:40.760Z,1012.59
2017-11-16T06:53:42.176Z,1012.59
2017-11-16T06:54:43.592Z,1012.62
2017-11-16T06:55:45.004Z,1012.65
2017-11-16T06:56:46.427Z,1012.65
2017-11-16T06:57:47.832Z,1012.68
2017-11-16T06:58:49.244Z,1012.71
2017-11-16T06:59:50.655Z,1012.70
2017-11-16T07:00:52.072Z,1012.72
2017-11-16T07:01:53.481Z,1012.72
2017-11-16T07:02:54.900Z,1012.70
2017-11-16T07:03:56.315Z,1012.69
2017-11-16T07:04:57.735Z,1012.74
2017-11-16T07:05:59.152Z,1012.74
2017-11-16T07:07:00.559Z,1012.73
2017-11-16T07:08:01.972Z,1012.68
2017-11-16T07:09:03.398Z,1012.70
2017-11-16T07:10:04.811Z,1012.73
2017-11-16T07:11:07.178Z,1012.71
2017-11-16T07:12:08.578Z,1012.73
2017-11-16T07:13:09.988Z,1012.76
2017-11-16T07:14:11.414Z,1012.72
2017-11-16T07:15:12.823Z,1012.75
2017-11-16T07:16:14.232Z,1012.69
2017-11-16T07:17:15.660Z,1012.73
2017-11-16T07:18:17.081Z,1012.74
2017-11-16T07:19:18.488Z,1012.71
2017-11-16T07:20:19.891Z,1012.74
2017-11-16T07:21:21.299Z,1012.68
2017-11-16T07:22:22.723Z,1012.74
2017-11-16T07:23:24.143Z,1012.70
2017-11-16T07:24:25.590Z,1012.71
2017-11-16T07:25:27.012Z,1012.71
2017-11-16T07:26:28.422Z,1012.65
2017-11-16T07:27:29.834Z,1012.62
2017-11-16T07:28:31.241Z,1012.62
2017-11-16T07:29:32.659Z,1012.62
2017-11-16T07:30:34.075Z,1012.61
2017-11-16T07:31:35.491Z,1012.58
2017-11-16T07:32:36.894Z,1012.59
2017-11-16T07:33:38.318Z,1012.54
2017-11-16T07:34:39.733Z,1012.60
2017-11-16T07:35:41.151Z,1012.56
2017-11-16T07:36:42.570Z,1012.55
2017-11-16T07:37:43.981Z,1012.58
2017-11-16T07:38:45.414Z,1012.63
2017-11-16T07:39:46.824Z,1012.60
2017-11-16T07:40:48.239Z,1012.61
2017-11-16T07:41:49.651Z,1012.65
2017-11-16T07:42:51.061Z,1012.65
2017-11-16T07:43:52.472Z,1012.64
2017-11-16T07:44:53.896Z,1012.62
2017-11-16T07:45:55.313Z,1012.61
2017-11-16T07:46:56.726Z,1012.60
2017-11-16T07:47:58.137Z,1012.63
2017-11-16T07:48:59.556Z,1012.61
2017-11-16T07:50:00.960Z,1012.62
2017-11-16T07:51:02.372Z,1012.65
2017-11-16T07:52:03.801Z,1012.68
2017-11-16T07:53:05.215Z,1012.76
2017-11-16T07:54:06.633Z,1012.76
2017-11-16T07:55:08.039Z,1012.82
2017-11-16T07:56:09.450Z,1012.84
2017-11-16T07:57:10.875Z,1012.80
2017-11-16T07:58:12.305Z,1012.81
2017-11-16T07:59:13.714Z,1012.81
2017-11-16T08:00:15.130Z,1012.81
2017-11-16T08:01:16.547Z,1012.81
2017-11-16T08:02:19.406Z,1012.79
2017-11-16T08:03:20.829Z,1012.79
2017-11-16T08:04:22.245Z,1012.80
2017-11-16T08:05:23.659Z,1012.84
2017-11-16T08:06:25.073Z,1012.86
2017-11-16T08:07:26.482Z,1012.87
2017-11-16T08:08:27.900Z,1012.91
2017-11-16T08:09:29.318Z,1012.94
2017-11-16T08:10:30.741Z,1012.95
2017-11-16T08:11:32.150Z,1013.00
2017-11-16T08:12:33.569Z,1012.95
2017-11-16T08:13:34.982Z,1012.96
2017-11-16T08:14:36.400Z,1012.95
2017-11-16T08:15:37.812Z,1012.97
2017-11-16T08:16:39.245Z,1012.97
2017-11-16T08:17:40.644Z,1013.05
2017-11-16T08:18:42.063Z,1012.98
2017-11-16T08:19:43.479Z,1012.98
2017-11-16T08:20:44.885Z,1013.03
2017-11-16T08:21:46.305Z,1012.99
2017-11-16T08:22:47.721Z,1013.01
2017-11-16T08:23:49.138Z,1013.04
2017-11-16T08:24:50.559Z,1013.06
2017-11-16T08:25:51.977Z,1013.09
2017-11-16T08:26:53.389Z,1013.08
2017-11-16T08:27:54.802Z,1013.09
2017-11-16T08:28:56.215Z,1013.19
2017-11-16T08:29:57.634Z,1013.18
2017-11-16T08:30:59.054Z,1013.21
2017-11-16T08:32:00.473Z,1013.25
2017-11-16T08:33:02.716Z,1013.25
2017-11-16T08:34:04.135Z,1013.25
2017-11-16T08:35:05.649Z,1013.26
2017-11-16T08:36:07.070Z,1013.29
2017-11-16T08:37:08.484Z,1013.29
2017-11-16T08:38:09.905Z,1013.33
2017-11-16T08:39:11.320Z,1013.32
2017-11-16T08:40:12.730Z,1013.30
2017-11-16T08:41:14.141Z,1013.35
2017-11-16T08:42:15.564Z,1013.39
2017-11-16T08:43:16.977Z,1013.40
2017-11-16T08:44:18.393Z,1013.39
2017-11-16T08:45:19.810Z,1013.46
2017-11-16T08:46:21.214Z,1013.46
2017-11-16T08:47:22.629Z,1013.46
2017-11-16T08:48:24.040Z,1013.43
2017-11-16T08:49:25.459Z,1013.47
2017-11-16T08:50:26.867Z,1013.42
2017-11-16T08:51:28.285Z,1013.45
2017-11-16T08:52:29.707Z,1013.42
2017-11-16T08:53:31.122Z,1013.39
2017-11-16T08:54:32.532Z,1013.42
2017-11-16T08:55:34.021Z,1013.46
2017-11-16T08:56:35.431Z,1013.42
2017-11-16T08:57:36.851Z,1013.40
2017-11-16T08:58:38.265Z,1013.39
2017-11-16T08:59:39.685Z,1013.34
2017-11-16T09:00:41.097Z,1013.40
2017-11-16T09:01:42.513Z,1013.38
2017-11-16T09:02:43.924Z,1013.45
2017-11-16T09:03:45.345Z,1013.48
2017-11-16T09:04:46.763Z,1013.46
2017-11-16T09:05:48.180Z,1013.44
2017-11-16T09:06:49.585Z,1013.43
2017-11-16T09:07:51.004Z,1013.40
2017-11-16T09:08:52.421Z,1013.40
2017-11-16T09:09:53.841Z,1013.40
2017-11-16T09:10:55.267Z,1013.37
2017-11-16T09:11:56.685Z,1013.41
2017-11-16T09:12:58.098Z,1013.39
2017-11-16T09:13:59.513Z,1013.39
2017-11-16T09:15:00.924Z,1013.39
2017-11-16T09:16:02.335Z,1013.37
2017-11-16T09:17:03.755Z,1013.39
2017-11-16T09:18:05.174Z,1013.40
2017-11-16T09:19:06.581Z,1013.39
2017-11-16T09:20:08.008Z,1013.40
2017-11-16T09:21:09.420Z,1013.35
2017-11-16T09:22:10.861Z,1013.39
2017-11-16T09:23:12.293Z,1013.41
2017-11-16T09:24:13.703Z,1013.41
2017-11-16T09:25:15.119Z,1013.40
2017-11-16T09:26:17.454Z,1013.37
2017-11-16T09:27:18.870Z,1013.35
2017-11-16T09:28:20.280Z,1013.33
2017-11-16T09:29:21.703Z,1013.26
2017-11-16T09:30:23.124Z,1013.25
2017-11-16T09:31:24.534Z,1013.29
2017-11-16T09:32:25.971Z,1013.29
2017-11-16T09:33:27.366Z,1013.27
2017-11-16T09:34:28.782Z,1013.25
2017-11-16T09:35:30.189Z,1013.28
2017-11-16T09:36:31.604Z,1013.24
2017-11-16T09:37:33.022Z,1013.24
2017-11-16T09:38:34.443Z,1013.22
2017-11-16T09:39:35.858Z,1013.21
2017-11-16T09:40:37.273Z,1013.24
2017-11-16T09:41:38.709Z,1013.20
2017-11-16T09:42:40.123Z,1013.23
2017-11-16T09:43:41.541Z,1013.20
2017-11-16T09:44:42.954Z,1013.15
2017-11-16T09:45:44.372Z,1013.22
2017-11-16T09:46:45.795Z,1013.18
2017-11-16T09:47:47.208Z,1013.20
2017-11-16T09:48:48.633Z,1013.19
2017-11-16T09:49:50.043Z,1013.21
2017-11-16T09:50:51.463Z,1013.15
2017-11-16T09:51:52.868Z,1013.14
2017-11-16T09:52:54.283Z,1013.14
2017-11-16T09:53:55.708Z,1013.10
2017-11-16T09:54:57.149Z,1013.12
2017-11-16T09:55:58.567Z,1013.12
2017-11-16T09:56:59.987Z,1013.09
2017-11-16T09:58:01.397Z,1013.09
2017-11-16T09:59:02.811Z,1013.06
2017-11-16T10:00:04.228Z,1013.05
2017-11-16T10:01:05.646Z,1013.05
2017-11-16T10:02:07.178Z,1013.05
2017-11-16T10:03:08.590Z,1013.00
2017-11-16T10:04:10.014Z,1013.05
2017-11-16T10:05:11.431Z,1013.01
2017-11-16T10:06:12.837Z,1013.00
2017-11-16T10:07:14.250Z,1013.01
2017-11-16T10:08:15.675Z,1012.99
2017-11-16T10:09:17.094Z,1012.98
2017-11-16T10:10:19.362Z,1012.96
2017-11-16T10:11:20.781Z,1012.96
2017-11-16T10:12:22.197Z,1012.89
2017-11-16T10:13:23.607Z,1012.94
2017-11-16T10:14:25.023Z,1012.91
2017-11-16T10:15:26.449Z,1012.90
2017-11-16T10:16:27.855Z,1012.86
2017-11-16T10:17:29.274Z,1012.86
2017-11-16T10:18:31.023Z,1012.87
2017-11-16T10:19:32.413Z,1012.82
2017-11-16T10:20:33.838Z,1012.82
2017-11-16T10:21:35.246Z,1012.79
2017-11-16T10:22:36.658Z,1012.77
2017-11-16T10:23:38.073Z,1012.76
2017-11-16T10:24:39.491Z,1012.80
2017-11-16T10:25:40.905Z,1012.73
2017-11-16T10:26:42.323Z,1012.75
2017-11-16T10:27:43.747Z,1012.75
2017-11-16T10:28:45.548Z,1012.74
2017-11-16T10:29:46.955Z,1012.78
2017-11-16T10:30:48.367Z,1012.73
2017-11-16T10:31:49.798Z,1012.73
2017-11-16T10:32:51.215Z,1012.75
2017-11-16T10:33:52.633Z,1012.79
2017-11-16T10:34:54.051Z,1012.78
2017-11-16T10:35:56.026Z,1012.75
2017-11-16T10:36:57.443Z,1012.71
2017-11-16T10:37:58.857Z,1012.69
2017-11-16T10:39:00.268Z,1012.63
2017-11-16T10:40:01.701Z,1012.66
2017-11-16T10:41:03.115Z,1012.65
2017-11-16T10:42:04.537Z,1012.63
2017-11-16T10:43:05.952Z,1012.66
2017-11-16T10:44:07.366Z,1012.65
2017-11-16T10:45:08.909Z,1012.69
2017-11-16T10:46:10.323Z,1012.67
2017-11-16T10:47:11.758Z,1012.68
2017-11-16T10:48:13.177Z,1012.67
2017-11-16T10:49:14.594Z,1012.70
2017-11-16T10:50:16.016Z,1012.67
2017-11-16T10:51:17.432Z,1012.62
2017-11-16T10:52:18.860Z,1012.65
2017-11-16T10:53:20.282Z,1012.63
2017-11-16T10:54:21.695Z,1012.64
2017-11-16T10:55:23.107Z,1012.60
2017-11-16T10:56:24.531Z,1012.58
2017-11-16T10:57:25.947Z,1012.61
2017-11-16T10:58:27.362Z,1012.59
2017-11-16T10:59:28.788Z,1012.58
2017-11-16T11:00:30.208Z,1012.58
2017-11-16T11:01:31.621Z,1012.56
2017-11-16T11:02:33.045Z,1012.55
2017-11-16T11:03:34.464Z,1012.56
2017-11-16T11:04:35.884Z,1012.55
2017-11-16T11:05:37.299Z,1012.52
2017-11-16T11:06:38.713Z,1012.55
2017-11-16T11:07:40.133Z,1012.56
2017-11-16T11:08:41.550Z,1012.53
2017-11-16T11:09:42.972Z,1012.54
2017-11-16T11:10:44.450Z,1012.56
2017-11-16T11:11:45.867Z,1012.55
2017-11-16T11:12:47.274Z,1012.55
2017-11-16T11:13:48.699Z,1012.58
2017-11-16T11:14:50.114Z,1012.53
2017-11-16T11:15:51.524Z,1012.57
2017-11-16T11:16:52.939Z,1012.54
2017-11-16T11:17:54.363Z,1012.52
2017-11-16T11:18:55.781Z,1012.56
2017-11-16T11:19:57.198Z,1012.50
2017-11-16T11:20:58.618Z,1012.51
2017-11-16T11:22:00.040Z,1012.50
2017-11-16T11:23:01.462Z,1012.55
2017-11-16T11:24:02.876Z,1012.50
2017-11-16T11:25:04.309Z,1012.51
2017-11-16T11:26:05.729Z,1012.50
2017-11-16T11:27:07.145Z,1012.51
2017-11-16T11:28:08.569Z,1012.51
2017-11-16T11:29:09.996Z,1012.48
2017-11-16T11:30:11.452Z,1012.50
2017-11-16T11:31:12.850Z,1012.49
2017-11-16T11:32:14.257Z,1012.59
2017-11-16T11:33:15.675Z,1012.55
2017-11-16T11:34:17.095Z,1012.57
2017-11-16T11:35:18.513Z,1012.55
2017-11-16T11:36:19.931Z,1012.55
2017-11-16T11:37:21.357Z,1012.55
2017-11-16T11:38:22.775Z,1012.58
2017-11-16T11:39:24.184Z,1012.58
2017-11-16T11:40:25.613Z,1012.56
2017-11-16T11:41:27.037Z,1012.57
2017-11-16T11:42:28.459Z,1012.61
2017-11-16T11:43:29.878Z,1012.58
2017-11-16T11:44:31.304Z,1012.57
2017-11-16T11:45:32.752Z,1012.57
2017-11-16T11:46:34.174Z,1012.60
2017-11-16T11:47:35.586Z,1012.58
2017-11-16T11:48:37.004Z,1012.60
2017-11-16T11:49:38.411Z,1012.61
2017-11-16T11:50:39.842Z,1012.61
2017-11-16T11:51:41.244Z,1012.58
2017-11-16T11:52:42.669Z,1012.58
2017-11-16T11:53:44.090Z,1012.58
2017-11-16T11:54:45.494Z,1012.57
2017-11-16T11:55:46.915Z,1012.58
2017-11-16T11:56:48.325Z,1012.57
2017-11-16T11:57:49.738Z,1012.53
2017-11-16T11:58:51.161Z,1012.53
2017-11-16T11:59:52.578Z,1012.51
2017-11-16T12:00:54.943Z,1012.51
2017-11-16T12:01:56.356Z,1012.51
2017-11-16T12:02:57.775Z,1012.54
2017-11-16T12:03:59.207Z,1012.56
2017-11-16T12:05:00.609Z,1012.55
2017-11-16T12:06:02.034Z,1012.57
2017-11-16T12:07:03.447Z,1012.58
2017-11-16T12:08:04.868Z,1012.53
2017-11-16T12:09:06.289Z,1012.52
2017-11-16T12:10:07.716Z,1012.56
2017-11-16T12:11:09.132Z,1012.54
2017-11-16T12:12:10.548Z,1012.51
2017-11-16T12:13:11.960Z,1012.45
2017-11-16T12:14:13.385Z,1012.48
2017-11-16T12:15:14.803Z,1012.49
2017-11-16T12:16:16.221Z,1012.48
2017-11-16T12:17:17.643Z,1012.49
2017-11-16T12:18:19.063Z,1012.50
2017-11-16T12:19:20.481Z,1012.50
2017-11-16T12:20:21.914Z,1012.49
2017-11-16T12:21:23.326Z,1012.48
2017-11-16T12:22:24.745Z,1012.47
2017-11-16T12:23:26.161Z,1012.50